Time;durP1;ratioP1;P1;durP2;ratioP2;P2;SDS_P1;SDS_P2;PMS_P1;PMS_P2;Temp;Humidity;BMP_temperature;BMP_pressure;BME280_temperature;BME280_humidity;BME280_pressure;Samples;Min_cycle;Max_cycle;Signal;HPM_P1;HPM_P2
2023/02/19 00:00:57;;;;;;;30.55;28.17;;;;;;;10.27;100.00;101036.94;5015340;28;20112;-80
2023/02/19 00:03:24;;;;;;;29.27;26.83;;;;;;;9.89;100.00;101030.34;5015135;28;20050;-80
2023/02/19 00:05:51;;;;;;;30.92;28.42;;;;;;;10.16;100.00;101016.22;5016190;28;20050;-80
2023/02/19 00:08:17;;;;;;;33.75;31.27;;;;;;;9.59;100.00;101012.81;5015758;28;20057;-80
2023/02/19 00:10:44;;;;;;;31.63;29.33;;;;;;;9.86;100.00;100997.06;5015303;28;20066;-80
2023/02/19 00:13:14;;;;;;;28.75;26.52;;;;;;;10.17;100.00;101001.97;5014841;28;20120;-80
2023/02/19 00:15:42;;;;;;;30.40;27.90;;;;;;;10.19;100.00;100997.25;5015718;28;20054;-79
2023/02/19 00:18:09;;;;;;;27.50;25.27;;;;;;;9.98;100.00;100998.16;5015858;28;20050;-79
2023/02/19 00:20:35;;;;;;;31.13;28.42;;;;;;;9.88;100.00;100989.72;5014810;28;20104;-80
2023/02/19 00:23:02;;;;;;;32.90;30.25;;;;;;;9.84;100.00;100984.00;5015671;28;20479;-80
2023/02/19 00:25:29;;;;;;;28.10;25.80;;;;;;;9.63;100.00;100990.19;5015507;28;20100;-79
2023/02/19 00:27:55;;;;;;;30.80;28.60;;;;;;;9.91;100.00;100986.69;5015338;28;20565;-80
2023/02/19 00:30:22;;;;;;;29.67;27.40;;;;;;;10.12;100.00;100972.53;5015281;28;20058;-80
2023/02/19 00:32:52;;;;;;;28.63;26.23;;;;;;;9.84;100.00;100980.53;5014771;28;20389;-80
2023/02/19 00:35:18;;;;;;;30.85;28.38;;;;;;;9.73;100.00;100984.53;5015379;28;20056;-80
2023/02/19 00:37:45;;;;;;;29.70;27.25;;;;;;;9.15;100.00;100986.50;5015438;28;20050;-80
2023/02/19 00:40:12;;;;;;;29.25;26.95;;;;;;;9.14;100.00;100985.69;5014595;28;20050;-80
2023/02/19 00:42:39;;;;;;;29.42;27.17;;;;;;;9.11;100.00;100983.44;5014594;28;20054;-80
2023/02/19 00:45:06;;;;;;;26.75;24.38;;;;;;;9.27;100.00;100971.75;5014959;28;20046;-80
2023/02/19 00:47:33;;;;;;;32.30;29.95;;;;;;;9.35;100.00;100982.22;5014925;28;20042;-80
2023/02/19 00:50:01;;;;;;;26.45;24.23;;;;;;;8.99;100.00;100978.81;5015560;28;20100;-80
2023/02/19 00:52:28;;;;;;;28.77;26.48;;;;;;;9.19;100.00;100979.81;5014813;28;20065;-80
2023/02/19 00:54:54;;;;;;;29.25;26.95;;;;;;;9.49;100.00;100977.00;5014838;28;20070;-80
2023/02/19 00:57:21;;;;;;;28.15;25.83;;;;;;;9.44;100.00;100967.00;5015583;28;20481;-80
2023/02/19 00:59:48;;;;;;;29.58;27.15;;;;;;;9.56;100.00;100970.75;5014827;28;20103;-80
2023/02/19 01:02:14;;;;;;;27.30;24.95;;;;;;;9.19;100.00;100969.22;5014419;28;20054;-80
2023/02/19 01:04:41;;;;;;;30.80;28.48;;;;;;;9.15;100.00;100975.91;5015409;28;20553;-80
2023/02/19 01:07:09;;;;;;;33.88;31.55;;;;;;;9.68;100.00;100970.19;5013786;28;20057;-80
2023/02/19 01:09:37;;;;;;;30.73;28.30;;;;;;;9.54;100.00;100971.97;5014503;28;20512;-80
2023/02/19 01:12:04;;;;;;;28.73;26.23;;;;;;;9.53;100.00;100962.34;5013381;28;20056;-80
2023/02/19 01:14:30;;;;;;;28.85;26.30;;;;;;;9.51;100.00;100959.09;5006743;28;20087;-80
2023/02/19 01:16:57;;;;;;;29.48;27.33;;;;;;;9.69;100.00;100958.59;5014622;28;20058;-80
2023/02/19 01:19:24;;;;;;;26.55;24.25;;;;;;;9.06;100.00;100961.16;5014368;28;20494;-80
2023/02/19 01:21:53;;;;;;;26.75;24.55;;;;;;;9.42;100.00;100963.72;5014176;28;20042;-80
2023/02/19 01:24:21;;;;;;;32.90;30.52;;;;;;;9.54;100.00;100969.31;5014386;28;20050;-80
2023/02/19 01:26:48;;;;;;;33.13;30.23;;;;;;;9.70;100.00;100976.16;5014507;28;20131;-80
2023/02/19 01:29:14;;;;;;;31.67;29.15;;;;;;;9.27;100.00;100974.38;5013716;28;20108;-80
2023/02/19 01:31:42;;;;;;;31.05;28.83;;;;;;;9.55;100.00;100982.34;5014379;28;20197;-80
2023/02/19 01:34:10;;;;;;;34.28;31.85;;;;;;;9.76;100.00;100978.03;5014711;28;20546;-80
2023/02/19 01:36:37;;;;;;;31.65;29.20;;;;;;;9.92;100.00;100977.69;5013459;28;20499;-80
2023/02/19 01:39:06;;;;;;;32.90;30.40;;;;;;;9.81;100.00;100965.00;5008488;28;20503;-80
2023/02/19 01:41:38;;;;;;;27.27;25.17;;;;;;;9.57;100.00;100974.22;5006609;28;20041;-80
2023/02/19 01:44:07;;;;;;;25.17;22.95;;;;;;;10.62;100.00;100970.53;5012223;28;20050;-80
2023/02/19 01:46:35;;;;;;;31.90;29.60;;;;;;;10.17;100.00;100963.97;5013793;28;20404;-80
2023/02/19 01:49:06;;;;;;;27.73;25.35;;;;;;;10.30;100.00;100975.50;5012141;28;20050;-80
2023/02/19 01:51:36;;;;;;;26.10;24.10;;;;;;;10.94;100.00;100966.28;5009649;28;20057;-80
2023/02/19 01:54:05;;;;;;;25.80;23.63;;;;;;;10.98;100.00;100970.19;5013045;28;20104;-80
2023/02/19 01:56:35;;;;;;;27.20;25.02;;;;;;;10.23;100.00;100960.53;5013622;28;20133;-79
2023/02/19 01:59:02;;;;;;;27.33;25.15;;;;;;;10.43;100.00;100971.25;5013277;28;20504;-80
2023/02/19 02:01:29;;;;;;;31.13;29.02;;;;;;;10.28;100.00;100969.56;5013421;28;20050;-80
2023/02/19 02:03:56;;;;;;;30.52;28.45;;;;;;;10.59;100.00;100984.19;5014132;28;20045;-80
2023/02/19 02:06:24;;;;;;;31.25;29.15;;;;;;;10.75;100.00;100959.09;5012668;28;20050;-80
2023/02/19 02:11:42;;;;;;;36.97;34.42;;;;;;;10.48;100.00;100967.00;5013036;28;20135;-80
2023/02/19 02:14:09;;;;;;;27.88;25.80;;;;;;;10.46;100.00;100976.97;5013099;28;20511;-80
2023/02/19 02:16:44;;;;;;;34.40;32.03;;;;;;;10.89;100.00;100986.50;5012841;28;20100;-80
2023/02/19 02:19:29;;;;;;;31.65;29.35;;;;;;;10.49;100.00;100981.06;5013105;28;20050;-80
2023/02/19 02:22:05;;;;;;;29.95;27.70;;;;;;;10.00;100.00;100985.50;5012601;28;20124;-80
2023/02/19 02:25:00;;;;;;;33.13;30.80;;;;;;;10.08;100.00;100988.03;5012723;28;20050;-79
2023/02/19 02:27:53;;;;;;;25.92;23.85;;;;;;;10.11;100.00;100984.16;5012602;28;20058;-79
2023/02/19 02:30:32;;;;;;;34.17;31.60;;;;;;;10.09;100.00;100988.84;5005335;28;20050;-80
2023/02/19 02:33:04;;;;;;;30.52;28.05;;;;;;;10.21;100.00;100997.06;5009205;28;20565;-80
2023/02/19 02:35:38;;;;;;;33.95;31.75;;;;;;;10.18;100.00;100998.28;5009928;28;20454;-80
2023/02/19 02:38:10;;;;;;;34.25;31.75;;;;;;;10.09;100.00;100997.63;5012022;28;20050;-79
2023/02/19 02:40:39;;;;;;;29.50;27.25;;;;;;;10.02;100.00;100990.66;5012219;28;20639;-80
2023/02/19 02:43:06;;;;;;;28.45;26.30;;;;;;;10.30;100.00;100990.59;5012773;28;20046;-79
2023/02/19 02:45:38;;;;;;;33.88;31.67;;;;;;;10.03;100.00;100989.63;5012481;28;20053;-80
2023/02/19 02:48:25;;;;;;;33.97;31.48;;;;;;;9.78;100.00;101000.69;5010785;28;20430;-80
2023/02/19 02:50:56;;;;;;;36.55;34.17;;;;;;;9.58;100.00;101010.31;5011859;28;20054;-80
2023/02/19 02:56:15;;;;;;;29.20;27.10;;;;;;;9.89;100.00;101022.38;5011894;28;20110;-80
2023/02/19 02:58:43;;;;;;;31.08;28.75;;;;;;;9.53;100.00;101026.81;5012321;28;20599;-80
2023/02/19 03:04:07;;;;;;;35.20;32.53;;;;;;;9.55;100.00;101038.03;5012797;28;20049;-80
2023/02/19 03:06:37;;;;;;;30.73;28.02;;;;;;;10.04;100.00;101017.78;5012071;28;20400;-80
2023/02/19 03:09:11;;;;;;;26.95;24.73;;;;;;;9.82;100.00;101025.00;5012955;28;20058;-80
2023/02/19 03:20:11;;;;;;;30.13;27.35;;;;;;;9.59;100.00;101030.53;5010973;28;20522;-80
2023/02/19 03:22:40;;;;;;;32.60;30.23;;;;;;;9.98;100.00;101019.38;5007883;28;20131;-80
2023/02/19 03:27:59;;;;;;;34.97;32.13;;;;;;;8.96;100.00;101033.00;5012565;28;20053;-79
2023/02/19 03:30:30;;;;;;;33.47;31.08;;;;;;;9.54;100.00;101035.59;5014867;28;20169;-79
2023/02/19 03:33:02;;;;;;;30.40;28.10;;;;;;;9.25;100.00;101037.38;5015641;28;20100;-79
2023/02/19 03:35:33;;;;;;;32.03;29.30;;;;;;;9.86;100.00;101035.03;5016054;28;20053;-79
2023/02/19 03:38:06;;;;;;;30.17;27.88;;;;;;;9.26;100.00;101051.44;5015958;28;20109;-80
2023/02/19 03:40:42;;;;;;;28.38;26.00;;;;;;;9.59;100.00;101051.72;5016392;28;20474;-79
2023/02/19 03:43:19;;;;;;;26.02;23.63;;;;;;;9.68;100.00;101055.06;5016354;28;20042;-79
2023/02/19 03:45:54;;;;;;;31.77;29.42;;;;;;;9.79;100.00;101041.28;5015962;28;20050;-80
2023/02/19 03:48:30;;;;;;;33.30;30.83;;;;;;;9.55;100.00;101038.03;5015286;28;20100;-80
2023/02/19 03:51:11;;;;;;;29.40;26.88;;;;;;;9.45;100.00;101047.34;5016115;28;20104;-80
2023/02/19 03:53:49;;;;;;;32.00;29.55;;;;;;;9.51;100.00;101058.00;5014514;28;20496;-79
2023/02/19 03:56:25;;;;;;;30.92;28.50;;;;;;;8.85;100.00;101055.50;5015302;28;20120;-80
2023/02/19 03:58:59;;;;;;;28.15;25.98;;;;;;;9.36;100.00;101044.00;5014059;28;20050;-80
2023/02/19 04:01:31;;;;;;;30.33;26.92;;;;;;;9.32;100.00;101051.53;5015539;28;20054;-80
2023/02/19 04:04:04;;;;;;;31.13;28.25;;;;;;;9.31;100.00;101052.50;5013694;28;20064;-80
2023/02/19 04:06:33;;;;;;;31.85;29.05;;;;;;;9.09;100.00;101040.28;5015212;28;20057;-80
2023/02/19 04:09:04;;;;;;;29.38;26.98;;;;;;;9.34;100.00;101043.34;5014758;28;20045;-79
2023/02/19 04:11:32;;;;;;;32.17;29.38;;;;;;;9.03;100.00;101043.66;5015148;28;20096;-80
2023/02/19 04:14:06;;;;;;;30.02;27.20;;;;;;;9.17;100.00;101042.81;5015535;28;20054;-80
2023/02/19 04:16:37;;;;;;;31.83;29.38;;;;;;;8.81;100.00;101061.38;5011352;28;20519;-79
2023/02/19 04:19:08;;;;;;;29.02;26.65;;;;;;;8.87;100.00;101063.28;5015178;28;20474;-80
2023/02/19 04:21:39;;;;;;;33.90;31.25;;;;;;;8.59;100.00;101061.28;5014778;28;20050;-80
2023/02/19 04:24:11;;;;;;;36.50;33.60;;;;;;;9.03;100.00;101067.50;5014331;28;20080;-80
2023/02/19 04:26:38;;;;;;;30.13;27.67;;;;;;;8.92;100.00;101061.69;5014837;28;20553;-79
2023/02/19 04:29:05;;;;;;;31.58;28.77;;;;;;;9.48;100.00;101079.59;5015539;28;20658;-80
2023/02/19 04:31:35;;;;;;;31.10;28.27;;;;;;;9.43;100.00;101078.53;5014991;28;20080;-80
2023/02/19 04:34:02;;;;;;;33.63;31.05;;;;;;;9.50;100.00;101080.25;5013789;28;20459;-80
2023/02/19 04:36:30;;;;;;;39.22;36.22;;;;;;;9.64;100.00;101079.31;5014689;28;20057;-79
2023/02/19 04:38:57;;;;;;;33.25;30.38;;;;;;;9.64;100.00;101078.50;5014718;28;20046;-79
2023/02/19 04:41:24;;;;;;;31.25;28.67;;;;;;;9.03;100.00;101073.63;5013667;28;20045;-79
2023/02/19 04:43:51;;;;;;;30.73;28.25;;;;;;;9.39;100.00;101070.13;5014788;28;20108;-79
2023/02/19 04:46:17;;;;;;;36.35;33.42;;;;;;;9.22;100.00;101071.38;5014205;28;20053;-80
2023/02/19 04:48:44;;;;;;;32.20;29.42;;;;;;;8.84;100.00;101075.06;5014153;28;20108;-79
2023/02/19 04:51:11;;;;;;;40.80;37.75;;;;;;;9.07;100.00;101085.50;5015031;28;20498;-80
2023/02/19 04:53:39;;;;;;;36.00;33.20;;;;;;;9.16;100.00;101080.91;5013897;28;20042;-79
2023/02/19 04:56:07;;;;;;;36.30;33.40;;;;;;;8.65;100.00;101073.81;5014137;28;20096;-79
2023/02/19 04:58:34;;;;;;;30.88;28.30;;;;;;;8.48;100.00;101075.81;5011312;28;20049;-79
2023/02/19 05:01:01;;;;;;;36.42;33.03;;;;;;;8.34;100.00;101078.44;5014139;28;20058;-79
2023/02/19 05:03:28;;;;;;;35.35;31.77;;;;;;;8.58;100.00;101093.25;5014889;28;20054;-79
2023/02/19 05:05:55;;;;;;;28.63;26.00;;;;;;;8.38;100.00;101091.16;5013851;28;20048;-80
2023/02/19 05:08:22;;;;;;;33.22;30.15;;;;;;;8.86;100.00;101093.38;5011119;28;20046;-79
2023/02/19 05:10:50;;;;;;;32.05;28.85;;;;;;;8.76;100.00;101088.38;5012981;28;20037;-80
2023/02/19 05:13:17;;;;;;;34.13;30.92;;;;;;;8.73;100.00;101094.06;5012542;28;20050;-79
2023/02/19 05:15:54;;;;;;;29.17;26.60;;;;;;;8.56;100.00;101119.88;5014157;28;20073;-80
2023/02/19 05:18:21;;;;;;;31.23;27.90;;;;;;;8.52;100.00;101115.16;5014760;28;20054;-79
2023/02/19 05:20:47;;;;;;;30.23;27.73;;;;;;;8.56;100.00;101119.88;5014105;28;20486;-80
2023/02/19 05:23:14;;;;;;;28.45;25.70;;;;;;;8.42;100.00;101124.19;5012564;28;20042;-79
2023/02/19 05:25:41;;;;;;;30.83;27.98;;;;;;;8.48;100.00;101133.25;5013547;28;20459;-79
2023/02/19 05:28:18;;;;;;;31.33;28.25;;;;;;;8.81;100.00;101132.88;5014389;28;20057;-80
2023/02/19 05:30:45;;;;;;;31.15;28.33;;;;;;;8.68;100.00;101129.06;5013912;28;20057;-79
2023/02/19 05:33:13;;;;;;;31.30;28.15;;;;;;;8.81;100.00;101131.03;5014090;28;20046;-79
2023/02/19 05:35:42;;;;;;;28.52;25.85;;;;;;;8.92;100.00;101137.69;5013592;28;20081;-79
2023/02/19 05:38:08;;;;;;;30.05;27.08;;;;;;;8.92;100.00;101148.28;5013150;28;20049;-80
2023/02/19 05:40:35;;;;;;;33.17;29.25;;;;;;;8.78;100.00;101152.59;5014228;28;20046;-80
2023/02/19 05:43:02;;;;;;;31.60;28.60;;;;;;;8.77;100.00;101166.84;5013577;28;20050;-79
2023/02/19 05:45:30;;;;;;;34.13;30.85;;;;;;;8.70;100.00;101165.94;5013128;28;20508;-79
2023/02/19 05:47:57;;;;;;;28.13;25.60;;;;;;;8.52;100.00;101171.56;5013301;28;20041;-80
2023/02/19 05:50:24;;;;;;;33.90;30.60;;;;;;;8.64;100.00;101179.91;5013223;28;20046;-79
2023/02/19 05:52:51;;;;;;;31.13;28.10;;;;;;;8.46;100.00;101189.00;5010900;28;20481;-80
2023/02/19 05:55:17;;;;;;;31.38;28.17;;;;;;;8.66;100.00;101191.94;5012671;28;20050;-80
2023/02/19 05:57:46;;;;;;;31.67;28.48;;;;;;;8.47;100.00;101190.66;5012788;28;20104;-79
2023/02/19 06:00:16;;;;;;;28.50;25.77;;;;;;;8.54;100.00;101195.25;5006521;28;20085;-79
2023/02/19 06:02:44;;;;;;;29.65;26.80;;;;;;;8.63;100.00;101188.84;5011652;28;20601;-79
2023/02/19 06:05:11;;;;;;;30.02;26.83;;;;;;;8.69;100.00;101188.94;5010100;28;20046;-80
2023/02/19 06:07:38;;;;;;;30.10;27.15;;;;;;;8.40;100.00;101199.50;5011004;28;20405;-80
2023/02/19 06:10:06;;;;;;;29.98;27.17;;;;;;;8.55;100.00;101200.34;4975884;28;20052;-80
2023/02/19 06:12:33;;;;;;;29.73;26.88;;;;;;;8.51;100.00;101208.84;5010596;28;20105;-79
2023/02/19 06:15:01;;;;;;;32.20;28.85;;;;;;;8.65;100.00;101208.84;5011473;28;20081;-80
2023/02/19 06:17:27;;;;;;;28.35;25.77;;;;;;;8.74;100.00;101204.28;5012405;28;20050;-80
2023/02/19 06:19:56;;;;;;;30.80;27.73;;;;;;;8.81;100.00;101222.94;5010873;28;20050;-80
2023/02/19 06:22:22;;;;;;;30.02;27.42;;;;;;;8.85;100.00;101221.56;5012635;28;20507;-80
2023/02/19 06:24:49;;;;;;;32.58;29.50;;;;;;;8.84;100.00;101233.97;5011226;28;20050;-79
2023/02/19 06:27:16;;;;;;;32.35;29.23;;;;;;;9.00;100.00;101237.47;5011347;28;20499;-80
2023/02/19 06:29:43;;;;;;;29.90;26.90;;;;;;;8.69;100.00;101239.25;5012930;28;20096;-79
2023/02/19 06:32:10;;;;;;;27.85;25.25;;;;;;;8.65;100.00;101237.13;5011063;28;20086;-81
2023/02/19 06:34:37;;;;;;;32.95;29.70;;;;;;;9.13;100.00;101238.44;5013477;28;20050;-79
2023/02/19 06:37:05;;;;;;;31.73;28.48;;;;;;;9.02;100.00;101238.94;5012265;28;20127;-80
2023/02/19 06:39:32;;;;;;;31.90;28.92;;;;;;;8.98;100.00;101244.75;5012303;28;20202;-79
2023/02/19 06:41:59;;;;;;;29.48;26.67;;;;;;;9.19;100.00;101239.53;5011547;28;20049;-80
2023/02/19 06:44:26;;;;;;;32.92;29.63;;;;;;;9.45;100.00;101240.91;5012096;28;20045;-80
2023/02/19 06:46:55;;;;;;;32.50;29.48;;;;;;;8.98;100.00;101234.97;5012198;28;20046;-80
2023/02/19 06:49:22;;;;;;;29.88;27.33;;;;;;;9.39;100.00;101240.63;5009788;28;20045;-80
2023/02/19 06:51:49;;;;;;;31.13;27.98;;;;;;;9.32;100.00;101244.19;5011159;28;20388;-80
2023/02/19 06:54:17;;;;;;;30.30;27.48;;;;;;;9.40;100.00;101252.88;5013402;28;20466;-80
2023/02/19 06:56:44;;;;;;;31.45;28.27;;;;;;;9.25;100.00;101254.72;5005819;28;20115;-79
2023/02/19 06:59:15;;;;;;;31.88;28.80;;;;;;;9.61;100.00;101260.06;5012227;28;20045;-79
2023/02/19 07:01:43;;;;;;;31.42;28.10;;;;;;;9.59;100.00;101263.91;5005828;28;20053;-80
2023/02/19 07:04:10;;;;;;;33.05;29.70;;;;;;;9.53;100.00;101260.19;5012035;28;20046;-79
2023/02/19 07:06:37;;;;;;;34.72;31.02;;;;;;;9.69;100.00;101258.31;5010220;28;20042;-80
2023/02/19 07:09:06;;;;;;;25.90;23.65;;;;;;;9.12;100.00;101259.84;5010571;28;20049;-80
2023/02/19 07:11:36;;;;;;;29.50;26.98;;;;;;;9.27;100.00;101254.53;5011543;28;20046;-80
2023/02/19 07:14:06;;;;;;;32.40;29.15;;;;;;;9.57;100.00;101248.19;5003120;28;20512;-80
2023/02/19 07:16:33;;;;;;;32.38;29.10;;;;;;;9.69;100.00;101250.38;5012781;28;20132;-80
2023/02/19 07:19:01;;;;;;;32.45;29.50;;;;;;;9.98;100.00;101255.56;5008788;28;20061;-80
2023/02/19 07:21:28;;;;;;;31.63;28.48;;;;;;;10.02;100.00;101243.56;5007047;28;20113;-80
2023/02/19 07:23:55;;;;;;;32.53;29.20;;;;;;;9.79;100.00;101232.31;5007542;28;20042;-80
2023/02/19 07:26:23;;;;;;;36.28;31.95;;;;;;;10.25;100.00;101237.22;5010529;28;20486;-80
2023/02/19 07:28:52;;;;;;;31.73;28.77;;;;;;;9.83;100.00;101221.13;5010844;28;20531;-80
2023/02/19 07:31:20;;;;;;;36.30;32.85;;;;;;;10.70;100.00;101222.69;5011875;28;20569;-80
2023/02/19 07:33:47;;;;;;;32.78;29.42;;;;;;;11.09;100.00;101231.94;5012955;28;20475;-80
2023/02/19 07:36:16;;;;;;;35.75;28.90;;;;;;;9.94;100.00;101226.94;5014089;28;20131;-80
2023/02/19 07:38:43;;;;;;;30.23;27.17;;;;;;;10.81;100.00;101226.66;5013593;28;20740;-80
2023/02/19 07:41:10;;;;;;;34.33;30.83;;;;;;;10.84;100.00;101212.16;5008862;28;20057;-79
2023/02/19 07:43:38;;;;;;;29.00;26.13;;;;;;;11.14;100.00;101210.09;5009068;28;20177;-80
2023/02/19 07:46:07;;;;;;;33.55;30.55;;;;;;;10.15;100.00;101203.06;5013024;28;20045;-80
2023/02/19 07:48:35;;;;;;;32.53;29.85;;;;;;;10.64;100.00;101209.38;5015564;28;20042;-80
2023/02/19 07:51:02;;;;;;;38.38;34.40;;;;;;;10.81;100.00;101217.88;5012178;28;20531;-80
2023/02/19 07:53:30;;;;;;;31.70;28.58;;;;;;;10.89;100.00;101213.22;5014090;28;20049;-80
2023/02/19 07:55:59;;;;;;;29.70;26.77;;;;;;;10.97;100.00;101201.59;5011452;28;20054;-80
2023/02/19 07:58:26;;;;;;;37.60;33.80;;;;;;;11.70;100.00;101212.50;5012758;28;20050;-80
2023/02/19 08:00:52;;;;;;;33.60;30.30;;;;;;;12.17;100.00;101215.28;5024250;28;20115;-80
2023/02/19 08:03:20;;;;;;;31.33;28.40;;;;;;;11.69;100.00;101222.34;5020571;28;20046;-80
2023/02/19 08:05:48;;;;;;;33.22;29.65;;;;;;;11.78;100.00;101219.50;5015005;28;20077;-79
2023/02/19 08:08:16;;;;;;;36.50;32.70;;;;;;;11.84;100.00;101211.53;5013461;28;20049;-78
2023/02/19 08:13:28;;;;;;;38.05;34.38;;;;;;;12.40;100.00;101226.34;5015572;28;20068;-81
2023/02/19 08:16:08;;;;;;;37.60;33.72;;;;;;;12.29;100.00;101230.47;5016544;28;20104;-80
2023/02/19 08:18:36;;;;;;;31.20;27.92;;;;;;;12.17;100.00;101215.28;5013682;28;20476;-80
2023/02/19 08:21:03;;;;;;;31.63;28.17;;;;;;;12.07;100.00;101215.69;5017777;28;20115;-81
2023/02/19 08:23:29;;;;;;;35.47;32.33;;;;;;;12.38;100.00;101205.25;5023668;28;20058;-80
2023/02/19 08:25:58;;;;;;;37.28;33.63;;;;;;;12.49;100.00;101208.31;5022341;28;20100;-80
2023/02/19 08:28:26;;;;;;;33.08;29.73;;;;;;;13.11;100.00;101217.63;5025604;28;20099;-81
2023/02/19 08:30:53;;;;;;;31.73;28.55;;;;;;;12.94;100.00;101219.91;5020946;28;20495;-81
2023/02/19 08:33:21;;;;;;;36.08;32.20;;;;;;;13.70;100.00;101218.41;5019442;28;20049;-80
2023/02/19 08:35:49;;;;;;;31.92;28.90;;;;;;;11.93;100.00;101214.03;5027122;28;20095;-81
2023/02/19 08:38:16;;;;;;;36.13;32.70;;;;;;;11.72;100.00;101205.16;5021100;28;20041;-81
2023/02/19 08:40:43;;;;;;;38.35;34.58;;;;;;;13.44;100.00;101201.50;5021229;28;20064;-81
2023/02/19 08:43:12;;;;;;;34.13;30.48;;;;;;;13.32;100.00;101219.22;5019933;28;20053;-80
2023/02/19 08:45:40;;;;;;;31.63;28.35;;;;;;;13.64;100.00;101214.72;5032345;28;20071;-82
2023/02/19 08:48:07;;;;;;;37.47;34.08;;;;;;;12.63;100.00;101212.59;5016619;28;20049;-81
2023/02/19 08:50:34;;;;;;;37.42;33.65;;;;;;;13.49;100.00;101206.19;5026581;28;20053;-80
2023/02/19 08:53:04;;;;;;;36.88;32.25;;;;;;;13.36;100.00;101220.41;5022062;28;20057;-81
2023/02/19 08:55:30;;;;;;;32.20;28.95;;;;;;;12.54;100.00;101221.84;5021945;28;20046;-80
2023/02/19 08:57:58;;;;;;;34.88;31.45;;;;;;;12.79;100.00;101219.34;5022417;28;20042;-80
2023/02/19 09:00:26;;;;;;;36.67;32.85;;;;;;;12.99;100.00;101214.78;5020573;28;20061;-80
2023/02/19 09:02:52;;;;;;;34.67;31.25;;;;;;;12.36;100.00;101215.28;5017687;28;20132;-81
2023/02/19 09:05:19;;;;;;;35.28;31.67;;;;;;;13.79;100.00;101205.63;5017626;28;20092;-81
2023/02/19 09:07:46;;;;;;;34.10;30.58;;;;;;;14.56;100.00;101207.09;5018147;28;20041;-80
2023/02/19 09:10:14;;;;;;;33.45;30.10;;;;;;;14.82;100.00;101189.16;5015645;28;20042;-82
2023/02/19 09:12:41;;;;;;;35.75;32.15;;;;;;;14.23;96.13;101191.34;5014179;28;20496;-80
2023/02/19 09:15:08;;;;;;;36.17;32.70;;;;;;;14.30;100.00;101197.44;5018527;28;20046;-81
2023/02/19 09:17:35;;;;;;;33.55;30.25;;;;;;;14.40;100.00;101192.44;5017225;28;20053;-81
2023/02/19 09:20:04;;;;;;;31.15;27.73;;;;;;;12.73;96.70;101175.66;5021124;28;20156;-80
2023/02/19 09:22:30;;;;;;;32.08;28.67;;;;;;;13.68;100.00;101186.59;5019922;28;20049;-80
2023/02/19 09:24:57;;;;;;;34.35;31.10;;;;;;;11.70;100.00;101178.75;5016285;28;20046;-80
2023/02/19 09:27:26;;;;;;;34.05;30.90;;;;;;;11.97;100.00;101178.00;5014916;28;20042;-80
2023/02/19 09:29:53;;;;;;;27.02;24.42;;;;;;;13.79;96.59;101168.25;5025032;28;20088;-82
2023/02/19 09:32:20;;;;;;;32.05;28.95;;;;;;;15.23;100.00;101180.44;5018060;28;20050;-81
2023/02/19 09:34:47;;;;;;;31.33;27.70;;;;;;;15.68;91.19;101174.72;5022155;28;20045;-80
2023/02/19 09:37:14;;;;;;;32.45;29.55;;;;;;;13.99;93.17;101182.28;5017395;28;20061;-81
2023/02/19 09:39:40;;;;;;;32.58;29.38;;;;;;;13.27;97.92;101184.34;5016864;28;20089;-81
2023/02/19 09:42:14;;;;;;;27.48;24.77;;;;;;;13.94;97.13;101177.56;5016575;28;20423;-82
2023/02/19 09:44:46;;;;;;;28.02;25.17;;;;;;;14.01;93.14;101172.22;5017254;28;20053;-81
2023/02/19 09:47:17;;;;;;;30.73;27.77;;;;;;;15.32;89.04;101178.28;5021736;28;20107;-80
2023/02/19 09:49:50;;;;;;;28.58;25.88;;;;;;;13.94;93.17;101176.75;5022779;28;20046;-81
2023/02/19 09:52:23;;;;;;;26.63;24.38;;;;;;;12.14;97.84;101168.59;5017212;28;20050;-80
2023/02/19 09:54:56;;;;;;;28.48;25.92;;;;;;;12.98;98.56;101175.81;5016838;28;20484;-81
2023/02/19 09:57:23;;;;;;;;;;;;;;;13.13;96.01;101164.06;5018355;28;20050;-81
2023/02/19 09:59:53;;;;;;;30.92;28.08;;;;;;;14.81;94.72;101171.47;5020316;28;19988;-81
2023/02/19 10:02:23;;;;;;;27.83;25.30;;;;;;;13.76;91.68;101166.81;5020489;28;20101;-80
2023/02/19 10:04:51;;;;;;;26.55;24.10;;;;;;;11.65;100.00;101164.44;5017007;28;20050;-80
2023/02/19 10:07:20;;;;;;;27.75;25.10;;;;;;;14.13;97.04;101158.94;5015558;28;20050;-80
2023/02/19 10:09:52;;;;;;;30.45;24.52;;;;;;;12.43;96.87;101153.19;5019532;28;20173;-80
2023/02/19 10:12:25;;;;;;;29.60;26.63;;;;;;;12.01;95.73;101155.25;5018730;28;20586;-81
2023/02/19 10:15:00;;;;;;;26.77;24.08;;;;;;;14.07;91.98;101157.97;5011414;28;20054;-80
2023/02/19 10:17:33;;;;;;;28.80;26.08;;;;;;;16.18;85.43;101160.13;5014805;28;20077;-80
2023/02/19 10:20:03;;;;;;;34.38;28.80;;;;;;;15.39;89.19;101143.38;5016521;28;20049;-81
2023/02/19 10:22:31;;;;;;;34.88;29.23;;;;;;;14.46;87.80;101147.94;5018956;28;20049;-80
2023/02/19 10:24:58;;;;;;;32.88;26.80;;;;;;;12.78;88.90;101140.41;5021540;28;20050;-81
2023/02/19 10:27:29;;;;;;;36.53;28.73;;;;;;;15.80;92.10;101139.94;5014937;28;20137;-80
2023/02/19 10:29:59;;;;;;;38.95;29.13;;;;;;;15.79;78.49;101139.13;5020474;28;20045;-82
2023/02/19 10:32:28;;;;;;;39.15;27.85;;;;;;;16.09;78.42;101134.72;5019730;28;20050;-81
2023/02/19 10:35:10;;;;;;;31.73;28.30;;;;;;;16.93;79.71;101128.00;5020879;28;20081;-80
2023/02/19 10:37:43;;;;;;;28.70;21.85;;;;;;;15.11;79.51;101121.53;5014970;28;20046;-81
2023/02/19 10:40:12;;;;;;;;;;;;;;;13.75;83.43;101112.63;5016540;28;20049;-81
2023/02/19 10:42:45;;;;;;;30.75;22.67;;;;;;;14.88;85.93;101116.06;5017063;28;20191;-81
2023/02/19 10:45:18;;;;;;;31.02;23.27;;;;;;;15.85;79.65;101107.09;5017136;28;20046;-82
2023/02/19 10:47:46;;;;;;;28.63;22.25;;;;;;;13.95;82.95;101104.47;5017296;28;20042;-81
2023/02/19 10:50:23;;;;;;;45.88;36.22;;;;;;;14.13;86.43;101094.81;5028054;28;20111;-79
2023/02/19 10:52:54;;;;;;;35.63;31.55;;;;;;;16.06;85.77;101093.13;5017079;28;20108;-81
2023/02/19 10:55:28;;;;;;;28.52;25.80;;;;;;;16.71;79.85;101092.13;5019160;28;20045;-81
2023/02/19 10:57:55;;;;;;;27.23;24.65;;;;;;;16.97;79.36;101090.78;5015559;28;20125;-81
2023/02/19 11:00:26;;;;;;;27.10;24.63;;;;;;;17.20;75.53;101076.44;5016403;28;20528;-81
2023/02/19 11:03:14;;;;;;;29.40;26.77;;;;;;;15.63;82.06;101069.31;5015739;28;20511;-82
2023/02/19 11:05:58;;;;;;;28.15;24.27;;;;;;;16.03;77.57;101064.13;5023877;28;20041;-81
2023/02/19 11:08:25;;;;;;;30.00;27.17;;;;;;;16.57;76.83;101071.97;5020611;28;20049;-80
2023/02/19 11:10:52;;;;;;;26.05;23.73;;;;;;;16.82;76.06;101072.50;5018319;28;20487;-80
2023/02/19 11:13:29;;;;;;;28.45;25.35;;;;;;;15.34;85.37;101077.19;5013750;28;20108;-81
2023/02/19 11:15:59;;;;;;;27.67;25.30;;;;;;;14.33;84.30;101070.59;5032721;28;20049;-81
2023/02/19 11:18:29;;;;;;;26.13;23.77;;;;;;;14.25;87.54;101077.06;5032418;28;20049;-81
2023/02/19 11:20:57;;;;;;;27.10;24.45;;;;;;;15.10;81.05;101068.25;5032706;28;20107;-80
2023/02/19 11:23:28;;;;;;;26.58;24.02;;;;;;;16.09;82.43;101073.09;5032131;28;20084;-81
2023/02/19 11:25:57;;;;;;;26.35;24.08;;;;;;;13.81;84.80;101070.06;5030951;28;20136;-81
2023/02/19 11:28:31;;;;;;;24.10;21.92;;;;;;;13.11;95.63;101056.81;5030606;28;20050;-80
2023/02/19 11:31:21;;;;;;;25.98;23.60;;;;;;;15.84;86.14;101058.06;5031510;28;20049;-81
2023/02/19 11:33:57;;;;;;;25.55;23.35;;;;;;;15.44;85.78;101061.38;5030425;28;20049;-82
2023/02/19 11:36:32;;;;;;;25.95;23.55;;;;;;;16.39;82.35;101048.81;5031449;28;20140;-81
2023/02/19 11:39:07;;;;;;;30.30;27.27;;;;;;;16.87;78.18;101044.97;5027907;28;20053;-81